sensor_id;sensor_type;location;lat;lon;timestamp;P1;durP1;ratioP1;P2;durP2;ratioP2
54143;SDS011;40050;47.324;18.792;2022-10-16T00:00:45;16.92;;;9.04;;
54143;SDS011;40050;47.324;18.792;2022-10-16T00:02:45;14.05;;;8.74;;
54143;SDS011;40050;47.324;18.792;2022-10-16T00:04:46;14.34;;;8.74;;
54143;SDS011;40050;47.324;18.792;2022-10-16T00:06:48;15.21;;;9.24;;
54143;SDS011;40050;47.324;18.792;2022-10-16T00:08:49;14.73;;;9.34;;
54143;SDS011;40050;47.324;18.792;2022-10-16T00:10:50;11.48;;;8.44;;
54143;SDS011;40050;47.324;18.792;2022-10-16T00:12:51;14.83;;;9.14;;
54143;SDS011;40050;47.324;18.792;2022-10-16T00:14:52;13.01;;;8.34;;
54143;SDS011;40050;47.324;18.792;2022-10-16T00:16:53;12.92;;;7.95;;
54143;SDS011;40050;47.324;18.792;2022-10-16T00:18:55;13.11;;;8.04;;
54143;SDS011;40050;47.324;18.792;2022-10-16T00:20:55;11.00;;;7.85;;
54143;SDS011;40050;47.324;18.792;2022-10-16T00:22:56;16.27;;;7.75;;
54143;SDS011;40050;47.324;18.792;2022-10-16T00:24:59;12.83;;;7.75;;
54143;SDS011;40050;47.324;18.792;2022-10-16T00:27:01;12.54;;;7.95;;
54143;SDS011;40050;47.324;18.792;2022-10-16T00:29:02;14.92;;;8.54;;
54143;SDS011;40050;47.324;18.792;2022-10-16T00:31:04;13.20;;;8.64;;
54143;SDS011;40050;47.324;18.792;2022-10-16T00:33:04;15.39;;;8.44;;
54143;SDS011;40050;47.324;18.792;2022-10-16T00:35:05;14.43;;;8.94;;
54143;SDS011;40050;47.324;18.792;2022-10-16T00:37:06;14.80;;;8.64;;
54143;SDS011;40050;47.324;18.792;2022-10-16T00:39:06;19.09;;;9.83;;
54143;SDS011;40050;47.324;18.792;2022-10-16T00:41:09;19.28;;;10.22;;
54143;SDS011;40050;47.324;18.792;2022-10-16T00:43:54;17.36;;;9.73;;
54143;SDS011;40050;47.324;18.792;2022-10-16T00:45:14;14.50;;;9.13;;
54143;SDS011;40050;47.324;18.792;2022-10-16T00:47:22;16.20;;;9.63;;
54143;SDS011;40050;47.324;18.792;2022-10-16T00:49:31;16.96;;;10.12;;
54143;SDS011;40050;47.324;18.792;2022-10-16T00:51:33;20.96;;;10.32;;
54143;SDS011;40050;47.324;18.792;2022-10-16T00:53:34;21.33;;;11.71;;
54143;SDS011;40050;47.324;18.792;2022-10-16T00:55:35;20.28;;;10.81;;
54143;SDS011;40050;47.324;18.792;2022-10-16T00:57:37;19.99;;;10.71;;
54143;SDS011;40050;47.324;18.792;2022-10-16T00:59:50;18.84;;;9.82;;
54143;SDS011;40050;47.324;18.792;2022-10-16T01:01:51;20.16;;;9.72;;
54143;SDS011;40050;47.324;18.792;2022-10-16T01:03:54;17.21;;;9.12;;
54143;SDS011;40050;47.324;18.792;2022-10-16T01:08:22;18.24;;;8.43;;
54143;SDS011;40050;47.324;18.792;2022-10-16T01:10:38;14.63;;;8.43;;
54143;SDS011;40050;47.324;18.792;2022-10-16T01:12:40;13.10;;;7.83;;
54143;SDS011;40050;47.324;18.792;2022-10-16T01:14:47;13.95;;;7.63;;
54143;SDS011;40050;47.324;18.792;2022-10-16T01:16:49;11.76;;;7.63;;
54143;SDS011;40050;47.324;18.792;2022-10-16T01:19:02;12.90;;;7.43;;
54143;SDS011;40050;47.324;18.792;2022-10-16T01:21:04;10.81;;;7.33;;
54143;SDS011;40050;47.324;18.792;2022-10-16T01:23:04;13.85;;;8.03;;
54143;SDS011;40050;47.324;18.792;2022-10-16T01:25:05;10.33;;;6.74;;
54143;SDS011;40050;47.324;18.792;2022-10-16T01:27:21;10.52;;;6.94;;
54143;SDS011;40050;47.324;18.792;2022-10-16T01:30:10;8.82;;;6.34;;
54143;SDS011;40050;47.324;18.792;2022-10-16T01:31:29;11.48;;;6.64;;
54143;SDS011;40050;47.324;18.792;2022-10-16T01:33:40;11.57;;;6.74;;
54143;SDS011;40050;47.324;18.792;2022-10-16T01:35:43;9.67;;;6.44;;
54143;SDS011;40050;47.324;18.792;2022-10-16T01:37:51;12.90;;;6.54;;
54143;SDS011;40050;47.324;18.792;2022-10-16T01:39:50;12.70;;;6.44;;
54143;SDS011;40050;47.324;18.792;2022-10-16T01:42:11;11.37;;;6.74;;
54143;SDS011;40050;47.324;18.792;2022-10-16T01:44:19;10.90;;;6.64;;
54143;SDS011;40050;47.324;18.792;2022-10-16T01:46:17;10.32;;;6.44;;
54143;SDS011;40050;47.324;18.792;2022-10-16T01:48:19;11.08;;;6.74;;
54143;SDS011;40050;47.324;18.792;2022-10-16T01:50:20;10.03;;;7.03;;
54143;SDS011;40050;47.324;18.792;2022-10-16T01:52:23;10.60;;;6.24;;
54143;SDS011;40050;47.324;18.792;2022-10-16T01:54:26;10.88;;;6.64;;
54143;SDS011;40050;47.324;18.792;2022-10-16T01:56:32;10.97;;;7.23;;
54143;SDS011;40050;47.324;18.792;2022-10-16T01:58:33;11.63;;;7.13;;
54143;SDS011;40050;47.324;18.792;2022-10-16T02:00:38;10.68;;;6.63;;
54143;SDS011;40050;47.324;18.792;2022-10-16T02:02:41;10.30;;;6.63;;
54143;SDS011;40050;47.324;18.792;2022-10-16T02:04:53;11.05;;;6.63;;
54143;SDS011;40050;47.324;18.792;2022-10-16T02:06:52;12.55;;;7.23;;
54143;SDS011;40050;47.324;18.792;2022-10-16T02:08:53;10.48;;;6.43;;
54143;SDS011;40050;47.324;18.792;2022-10-16T02:10:56;10.38;;;6.53;;
54143;SDS011;40050;47.324;18.792;2022-10-16T02:13:06;11.60;;;6.83;;
54143;SDS011;40050;47.324;18.792;2022-10-16T02:15:02;9.99;;;6.43;;
54143;SDS011;40050;47.324;18.792;2022-10-16T02:17:10;12.23;;;6.63;;
54143;SDS011;40050;47.324;18.792;2022-10-16T02:19:08;9.50;;;6.13;;
54143;SDS011;40050;47.324;18.792;2022-10-16T02:21:29;9.59;;;6.82;;
54143;SDS011;40050;47.324;18.792;2022-10-16T02:23:34;11.09;;;6.92;;
54143;SDS011;40050;47.324;18.792;2022-10-16T02:25:37;11.00;;;6.72;;
54143;SDS011;40050;47.324;18.792;2022-10-16T02:27:55;9.58;;;6.72;;
54143;SDS011;40050;47.324;18.792;2022-10-16T02:29:53;11.56;;;6.52;;
54143;SDS011;40050;47.324;18.792;2022-10-16T02:31:59;9.77;;;6.23;;
54143;SDS011;40050;47.324;18.792;2022-10-16T02:33:59;10.70;;;6.13;;
54143;SDS011;40050;47.324;18.792;2022-10-16T02:36:01;10.42;;;6.62;;
54143;SDS011;40050;47.324;18.792;2022-10-16T02:38:03;10.24;;;6.33;;
54143;SDS011;40050;47.324;18.792;2022-10-16T02:40:05;10.62;;;6.62;;
54143;SDS011;40050;47.324;18.792;2022-10-16T02:42:09;10.90;;;6.33;;
54143;SDS011;40050;47.324;18.792;2022-10-16T02:44:06;13.44;;;6.62;;
54143;SDS011;40050;47.324;18.792;2022-10-16T02:46:07;10.99;;;6.62;;
54143;SDS011;40050;47.324;18.792;2022-10-16T02:48:08;10.71;;;6.62;;
54143;SDS011;40050;47.324;18.792;2022-10-16T02:50:09;9.67;;;6.23;;
54143;SDS011;40050;47.324;18.792;2022-10-16T02:52:10;10.22;;;6.72;;
54143;SDS011;40050;47.324;18.792;2022-10-16T02:54:11;13.13;;;6.92;;
54143;SDS011;40050;47.324;18.792;2022-10-16T02:56:12;11.16;;;6.22;;
54143;SDS011;40050;47.324;18.792;2022-10-16T02:58:13;10.40;;;6.22;;
54143;SDS011;40050;47.324;18.792;2022-10-16T03:00:14;11.34;;;6.12;;
54143;SDS011;40050;47.324;18.792;2022-10-16T03:02:14;9.84;;;5.93;;
54143;SDS011;40050;47.324;18.792;2022-10-16T03:04:15;9.74;;;6.22;;
54143;SDS011;40050;47.324;18.792;2022-10-16T03:06:16;8.89;;;6.12;;
54143;SDS011;40050;47.324;18.792;2022-10-16T03:08:17;10.39;;;5.93;;
54143;SDS011;40050;47.324;18.792;2022-10-16T03:10:18;10.38;;;6.12;;
54143;SDS011;40050;47.324;18.792;2022-10-16T03:12:19;9.08;;;6.12;;
54143;SDS011;40050;47.324;18.792;2022-10-16T03:14:20;9.45;;;6.02;;
54143;SDS011;40050;47.324;18.792;2022-10-16T03:16:21;9.64;;;5.92;;
54143;SDS011;40050;47.324;18.792;2022-10-16T03:18:22;9.64;;;6.12;;
54143;SDS011;40050;47.324;18.792;2022-10-16T03:20:23;10.01;;;6.22;;
54143;SDS011;40050;47.324;18.792;2022-10-16T03:22:24;9.92;;;6.52;;
54143;SDS011;40050;47.324;18.792;2022-10-16T03:24:24;9.92;;;6.32;;
54143;SDS011;40050;47.324;18.792;2022-10-16T03:26:25;9.44;;;6.32;;
54143;SDS011;40050;47.324;18.792;2022-10-16T03:28:26;9.63;;;6.22;;
54143;SDS011;40050;47.324;18.792;2022-10-16T03:30:27;9.62;;;6.42;;
54143;SDS011;40050;47.324;18.792;2022-10-16T03:32:28;9.25;;;6.32;;
54143;SDS011;40050;47.324;18.792;2022-10-16T03:34:29;11.31;;;6.42;;
54143;SDS011;40050;47.324;18.792;2022-10-16T03:36:30;12.24;;;6.51;;
54143;SDS011;40050;47.324;18.792;2022-10-16T03:38:31;10.28;;;6.71;;
54143;SDS011;40050;47.324;18.792;2022-10-16T03:40:32;8.88;;;6.32;;
54143;SDS011;40050;47.324;18.792;2022-10-16T03:42:33;9.91;;;6.51;;
54143;SDS011;40050;47.324;18.792;2022-10-16T03:44:34;9.25;;;6.32;;
54143;SDS011;40050;47.324;18.792;2022-10-16T03:46:35;8.87;;;5.92;;
54143;SDS011;40050;47.324;18.792;2022-10-16T03:48:36;11.76;;;6.31;;
54143;SDS011;40050;47.324;18.792;2022-10-16T03:50:37;10.18;;;6.61;;
54143;SDS011;40050;47.324;18.792;2022-10-16T03:52:38;10.66;;;6.81;;
54143;SDS011;40050;47.324;18.792;2022-10-16T03:54:40;9.63;;;6.42;;
54143;SDS011;40050;47.324;18.792;2022-10-16T03:56:41;9.72;;;6.52;;
54143;SDS011;40050;47.324;18.792;2022-10-16T03:58:42;11.87;;;6.81;;
54143;SDS011;40050;47.324;18.792;2022-10-16T04:00:44;10.56;;;6.52;;
54143;SDS011;40050;47.324;18.792;2022-10-16T04:02:44;11.32;;;6.71;;
54143;SDS011;40050;47.324;18.792;2022-10-16T04:04:45;10.76;;;6.71;;
54143;SDS011;40050;47.324;18.792;2022-10-16T04:06:46;10.85;;;6.71;;
54143;SDS011;40050;47.324;18.792;2022-10-16T04:08:47;8.79;;;6.12;;
54143;SDS011;40050;47.324;18.792;2022-10-16T04:10:48;9.73;;;6.52;;
54143;SDS011;40050;47.324;18.792;2022-10-16T04:12:49;8.42;;;6.12;;
54143;SDS011;40050;47.324;18.792;2022-10-16T04:14:53;10.57;;;6.52;;
54143;SDS011;40050;47.324;18.792;2022-10-16T04:16:54;10.30;;;6.72;;
54143;SDS011;40050;47.324;18.792;2022-10-16T04:18:54;10.39;;;6.52;;
54143;SDS011;40050;47.324;18.792;2022-10-16T04:20:55;12.92;;;6.42;;
54143;SDS011;40050;47.324;18.792;2022-10-16T04:22:56;10.20;;;6.32;;
54143;SDS011;40050;47.324;18.792;2022-10-16T04:24:57;13.66;;;7.11;;
54143;SDS011;40050;47.324;18.792;2022-10-16T04:26:58;11.87;;;6.91;;
54143;SDS011;40050;47.324;18.792;2022-10-16T04:28:59;10.36;;;6.51;;
54143;SDS011;40050;47.324;18.792;2022-10-16T04:31:03;12.86;;;7.30;;
54143;SDS011;40050;47.324;18.792;2022-10-16T04:33:01;11.36;;;7.59;;
54143;SDS011;40050;47.324;18.792;2022-10-16T04:35:02;13.03;;;7.79;;
54143;SDS011;40050;47.324;18.792;2022-10-16T04:37:03;10.98;;;6.90;;
54143;SDS011;40050;47.324;18.792;2022-10-16T04:39:04;11.26;;;6.70;;
54143;SDS011;40050;47.324;18.792;2022-10-16T04:41:05;11.63;;;7.39;;
54143;SDS011;40050;47.324;18.792;2022-10-16T04:43:06;12.38;;;7.39;;
54143;SDS011;40050;47.324;18.792;2022-10-16T04:45:07;10.70;;;7.00;;
54143;SDS011;40050;47.324;18.792;2022-10-16T04:47:08;13.67;;;7.49;;
54143;SDS011;40050;47.324;18.792;2022-10-16T04:49:11;11.16;;;6.80;;
54143;SDS011;40050;47.324;18.792;2022-10-16T04:51:09;10.61;;;6.90;;
54143;SDS011;40050;47.324;18.792;2022-10-16T04:53:10;12.47;;;6.90;;
54143;SDS011;40050;47.324;18.792;2022-10-16T04:55:11;10.43;;;6.70;;
54143;SDS011;40050;47.324;18.792;2022-10-16T04:57:12;13.59;;;7.00;;
54143;SDS011;40050;47.324;18.792;2022-10-16T04:59:13;10.80;;;6.61;;
54143;SDS011;40050;47.324;18.792;2022-10-16T05:01:14;10.88;;;6.90;;
54143;SDS011;40050;47.324;18.792;2022-10-16T05:03:16;11.62;;;7.29;;
54143;SDS011;40050;47.324;18.792;2022-10-16T05:05:17;11.62;;;7.59;;
54143;SDS011;40050;47.324;18.792;2022-10-16T05:07:18;10.32;;;6.80;;
54143;SDS011;40050;47.324;18.792;2022-10-16T05:09:19;11.62;;;7.59;;
54143;SDS011;40050;47.324;18.792;2022-10-16T05:11:20;11.52;;;7.09;;
54143;SDS011;40050;47.324;18.792;2022-10-16T05:13:21;11.61;;;7.49;;
54143;SDS011;40050;47.324;18.792;2022-10-16T05:15:22;12.17;;;7.49;;
54143;SDS011;40050;47.324;18.792;2022-10-16T05:17:23;10.67;;;6.90;;
54143;SDS011;40050;47.324;18.792;2022-10-16T05:19:24;11.51;;;7.09;;
54143;SDS011;40050;47.324;18.792;2022-10-16T05:21:25;10.38;;;6.79;;
54143;SDS011;40050;47.324;18.792;2022-10-16T05:23:26;10.47;;;6.79;;
54143;SDS011;40050;47.324;18.792;2022-10-16T05:25:27;12.50;;;6.79;;
54143;SDS011;40050;47.324;18.792;2022-10-16T05:27:27;11.48;;;7.09;;
54143;SDS011;40050;47.324;18.792;2022-10-16T05:29:28;10.45;;;6.69;;
54143;SDS011;40050;47.324;18.792;2022-10-16T05:31:29;10.45;;;6.69;;
54143;SDS011;40050;47.324;18.792;2022-10-16T05:33:30;10.63;;;6.69;;
54143;SDS011;40050;47.324;18.792;2022-10-16T05:35:31;10.35;;;7.08;;
54143;SDS011;40050;47.324;18.792;2022-10-16T05:37:32;12.38;;;6.98;;
54143;SDS011;40050;47.324;18.792;2022-10-16T05:39:33;12.65;;;7.08;;
54143;SDS011;40050;47.324;18.792;2022-10-16T05:41:35;11.54;;;6.88;;
54143;SDS011;40050;47.324;18.792;2022-10-16T05:43:36;11.98;;;7.27;;
54143;SDS011;40050;47.324;18.792;2022-10-16T05:45:38;12.90;;;7.47;;
54143;SDS011;40050;47.324;18.792;2022-10-16T05:47:39;13.07;;;7.07;;
54143;SDS011;40050;47.324;18.792;2022-10-16T05:49:40;13.05;;;6.97;;
54143;SDS011;40050;47.324;18.792;2022-10-16T05:51:41;10.84;;;6.97;;
54143;SDS011;40050;47.324;18.792;2022-10-16T05:53:42;9.64;;;6.48;;
54143;SDS011;40050;47.324;18.792;2022-10-16T05:55:43;11.47;;;6.77;;
54143;SDS011;40050;47.324;18.792;2022-10-16T05:57:44;12.36;;;7.06;;
54143;SDS011;40050;47.324;18.792;2022-10-16T05:59:45;12.04;;;7.25;;
54143;SDS011;40050;47.324;18.792;2022-10-16T06:01:47;11.65;;;8.03;;
54143;SDS011;40050;47.324;18.792;2022-10-16T06:03:48;14.70;;;8.02;;
54143;SDS011;40050;47.324;18.792;2022-10-16T06:05:49;10.89;;;7.43;;
54143;SDS011;40050;47.324;18.792;2022-10-16T06:07:50;12.44;;;7.53;;
54143;SDS011;40050;47.324;18.792;2022-10-16T06:09:51;11.89;;;7.04;;
54143;SDS011;40050;47.324;18.792;2022-10-16T06:11:53;10.51;;;6.84;;
54143;SDS011;40050;47.324;18.792;2022-10-16T06:13:55;11.70;;;7.23;;
54143;SDS011;40050;47.324;18.792;2022-10-16T06:15:56;11.14;;;7.43;;
54143;SDS011;40050;47.324;18.792;2022-10-16T06:17:55;11.77;;;7.42;;
54143;SDS011;40050;47.324;18.792;2022-10-16T06:19:56;11.69;;;7.82;;
54143;SDS011;40050;47.324;18.792;2022-10-16T06:21:59;10.88;;;7.53;;
54143;SDS011;40050;47.324;18.792;2022-10-16T06:24:00;12.34;;;7.14;;
54143;SDS011;40050;47.324;18.792;2022-10-16T06:26:04;11.70;;;7.43;;
54143;SDS011;40050;47.324;18.792;2022-10-16T06:28:04;11.89;;;7.53;;
54143;SDS011;40050;47.324;18.792;2022-10-16T06:30:06;11.25;;;7.72;;
54143;SDS011;40050;47.324;18.792;2022-10-16T06:32:06;10.35;;;7.43;;
54143;SDS011;40050;47.324;18.792;2022-10-16T06:34:09;11.17;;;7.43;;
54143;SDS011;40050;47.324;18.792;2022-10-16T06:36:13;14.30;;;8.13;;
54143;SDS011;40050;47.324;18.792;2022-10-16T06:38:10;14.88;;;7.94;;
54143;SDS011;40050;47.324;18.792;2022-10-16T06:40:11;14.17;;;7.84;;
54143;SDS011;40050;47.324;18.792;2022-10-16T06:42:11;12.44;;;7.75;;
54143;SDS011;40050;47.324;18.792;2022-10-16T06:44:12;12.07;;;7.45;;
54143;SDS011;40050;47.324;18.792;2022-10-16T06:46:14;13.22;;;7.95;;
54143;SDS011;40050;47.324;18.792;2022-10-16T06:48:14;12.70;;;7.56;;
54143;SDS011;40050;47.324;18.792;2022-10-16T06:50:15;11.14;;;7.09;;
54143;SDS011;40050;47.324;18.792;2022-10-16T06:52:16;10.99;;;6.90;;
54143;SDS011;40050;47.324;18.792;2022-10-16T06:54:18;13.39;;;7.41;;
54143;SDS011;40050;47.324;18.792;2022-10-16T06:56:26;12.27;;;7.61;;
54143;SDS011;40050;47.324;18.792;2022-10-16T06:58:20;11.85;;;7.22;;
54143;SDS011;40050;47.324;18.792;2022-10-16T07:00:20;12.91;;;8.01;;
54143;SDS011;40050;47.324;18.792;2022-10-16T07:02:21;12.33;;;7.22;;
54143;SDS011;40050;47.324;18.792;2022-10-16T07:04:22;12.71;;;7.62;;
54143;SDS011;40050;47.324;18.792;2022-10-16T07:06:24;13.62;;;7.33;;
54143;SDS011;40050;47.324;18.792;2022-10-16T07:08:24;12.78;;;7.83;;
54143;SDS011;40050;47.324;18.792;2022-10-16T07:10:25;13.40;;;7.73;;
54143;SDS011;40050;47.324;18.792;2022-10-16T07:12:26;15.04;;;9.22;;
54143;SDS011;40050;47.324;18.792;2022-10-16T07:14:27;12.48;;;8.73;;
54143;SDS011;40050;47.324;18.792;2022-10-16T07:16:29;13.27;;;7.94;;
54143;SDS011;40050;47.324;18.792;2022-10-16T07:18:29;12.24;;;7.94;;
54143;SDS011;40050;47.324;18.792;2022-10-16T07:20:30;13.11;;;7.65;;
54143;SDS011;40050;47.324;18.792;2022-10-16T07:22:31;11.47;;;7.65;;
54143;SDS011;40050;47.324;18.792;2022-10-16T07:24:32;15.40;;;7.85;;
54143;SDS011;40050;47.324;18.792;2022-10-16T07:26:35;13.55;;;7.36;;
54143;SDS011;40050;47.324;18.792;2022-10-16T07:28:35;15.23;;;7.36;;
54143;SDS011;40050;47.324;18.792;2022-10-16T07:30:39;14.91;;;7.56;;
54143;SDS011;40050;47.324;18.792;2022-10-16T07:32:40;15.73;;;8.06;;
54143;SDS011;40050;47.324;18.792;2022-10-16T07:34:42;15.55;;;7.86;;
54143;SDS011;40050;47.324;18.792;2022-10-16T07:36:43;10.71;;;7.06;;
54143;SDS011;40050;47.324;18.792;2022-10-16T07:38:44;14.01;;;7.56;;
54143;SDS011;40050;47.324;18.792;2022-10-16T07:40:45;12.77;;;7.37;;
54143;SDS011;40050;47.324;18.792;2022-10-16T07:42:46;13.62;;;7.86;;
54143;SDS011;40050;47.324;18.792;2022-10-16T07:44:47;11.92;;;7.37;;
54143;SDS011;40050;47.324;18.792;2022-10-16T07:46:48;14.59;;;7.47;;
54143;SDS011;40050;47.324;18.792;2022-10-16T07:48:49;12.43;;;7.87;;
54143;SDS011;40050;47.324;18.792;2022-10-16T07:50:50;16.25;;;7.87;;
54143;SDS011;40050;47.324;18.792;2022-10-16T07:52:51;13.52;;;7.47;;
54143;SDS011;40050;47.324;18.792;2022-10-16T07:54:52;12.35;;;7.18;;
54143;SDS011;40050;47.324;18.792;2022-10-16T07:56:53;14.92;;;7.78;;
54143;SDS011;40050;47.324;18.792;2022-10-16T07:58:54;14.16;;;7.38;;
54143;SDS011;40050;47.324;18.792;2022-10-16T08:00:55;15.66;;;7.78;;
54143;SDS011;40050;47.324;18.792;2022-10-16T08:02:56;13.31;;;7.18;;
54143;SDS011;40050;47.324;18.792;2022-10-16T08:04:56;12.42;;;7.18;;
54143;SDS011;40050;47.324;18.792;2022-10-16T08:06:57;11.96;;;7.38;;
54143;SDS011;40050;47.324;18.792;2022-10-16T08:08:58;12.36;;;7.19;;
54143;SDS011;40050;47.324;18.792;2022-10-16T08:11:00;12.56;;;7.59;;
54143;SDS011;40050;47.324;18.792;2022-10-16T08:13:01;11.60;;;7.29;;
54143;SDS011;40050;47.324;18.792;2022-10-16T08:15:02;11.80;;;7.49;;
54143;SDS011;40050;47.324;18.792;2022-10-16T08:17:02;11.60;;;6.89;;
54143;SDS011;40050;47.324;18.792;2022-10-16T08:19:04;11.99;;;6.89;;
54143;SDS011;40050;47.324;18.792;2022-10-16T08:21:05;12.68;;;7.29;;
54143;SDS011;40050;47.324;18.792;2022-10-16T08:23:06;11.11;;;7.09;;
54143;SDS011;40050;47.324;18.792;2022-10-16T08:25:07;12.60;;;7.29;;
54143;SDS011;40050;47.324;18.792;2022-10-16T08:27:07;14.96;;;7.29;;
54143;SDS011;40050;47.324;18.792;2022-10-16T08:29:09;12.69;;;7.49;;
54143;SDS011;40050;47.324;18.792;2022-10-16T08:31:10;13.79;;;7.29;;
54143;SDS011;40050;47.324;18.792;2022-10-16T08:33:10;10.23;;;6.99;;
54143;SDS011;40050;47.324;18.792;2022-10-16T08:35:12;12.13;;;7.29;;
54143;SDS011;40050;47.324;18.792;2022-10-16T08:37:12;10.76;;;6.89;;
54143;SDS011;40050;47.324;18.792;2022-10-16T08:39:13;11.25;;;7.09;;
54143;SDS011;40050;47.324;18.792;2022-10-16T08:41:31;11.94;;;6.69;;
54143;SDS011;40050;47.324;18.792;2022-10-16T08:45:57;12.45;;;6.99;;
54143;SDS011;40050;47.324;18.792;2022-10-16T08:48:22;10.97;;;6.79;;
54143;SDS011;40050;47.324;18.792;2022-10-16T08:50:30;12.74;;;6.89;;
54143;SDS011;40050;47.324;18.792;2022-10-16T08:52:30;11.96;;;6.79;;
54143;SDS011;40050;47.324;18.792;2022-10-16T08:54:51;10.88;;;6.79;;
54143;SDS011;40050;47.324;18.792;2022-10-16T08:56:35;10.59;;;6.89;;
54143;SDS011;40050;47.324;18.792;2022-10-16T08:58:46;11.59;;;7.00;;
54143;SDS011;40050;47.324;18.792;2022-10-16T09:00:48;11.49;;;7.20;;
54143;SDS011;40050;47.324;18.792;2022-10-16T09:05:22;11.38;;;6.79;;
54143;SDS011;40050;47.324;18.792;2022-10-16T09:07:26;9.90;;;6.99;;
54143;SDS011;40050;47.324;18.792;2022-10-16T09:09:43;10.49;;;7.29;;
54143;SDS011;40050;47.324;18.792;2022-10-16T09:11:57;9.31;;;6.79;;
54143;SDS011;40050;47.324;18.792;2022-10-16T09:14:26;9.61;;;6.40;;
54143;SDS011;40050;47.324;18.792;2022-10-16T09:18:44;10.11;;;6.80;;
54143;SDS011;40050;47.324;18.792;2022-10-16T09:20:52;12.00;;;6.50;;
54143;SDS011;40050;47.324;18.792;2022-10-16T09:23:00;13.19;;;6.30;;
54143;SDS011;40050;47.324;18.792;2022-10-16T09:24:59;10.92;;;6.30;;
54143;SDS011;40050;47.324;18.792;2022-10-16T09:26:57;34.25;;;15.09;;
54143;SDS011;40050;47.324;18.792;2022-10-16T09:28:58;14.69;;;8.50;;
54143;SDS011;40050;47.324;18.792;2022-10-16T09:31:00;24.14;;;12.39;;
54143;SDS011;40050;47.324;18.792;2022-10-16T09:33:02;17.29;;;9.80;;
54143;SDS011;40050;47.324;18.792;2022-10-16T09:35:09;71.57;;;30.49;;
54143;SDS011;40050;47.324;18.792;2022-10-16T09:37:18;36.58;;;18.99;;
54143;SDS011;40050;47.324;18.792;2022-10-16T09:39:17;20.37;;;10.50;;
54143;SDS011;40050;47.324;18.792;2022-10-16T09:41:21;16.80;;;10.10;;
54143;SDS011;40050;47.324;18.792;2022-10-16T09:43:31;21.07;;;11.50;;
54143;SDS011;40050;47.324;18.792;2022-10-16T09:45:21;15.10;;;7.90;;
54143;SDS011;40050;47.324;18.792;2022-10-16T09:47:31;10.54;;;6.70;;
54143;SDS011;40050;47.324;18.792;2022-10-16T09:49:34;11.13;;;6.90;;
54143;SDS011;40050;47.324;18.792;2022-10-16T09:51:36;13.02;;;7.10;;
54143;SDS011;40050;47.324;18.792;2022-10-16T09:53:45;8.85;;;6.60;;
54143;SDS011;40050;47.324;18.792;2022-10-16T09:55:49;14.90;;;8.00;;
54143;SDS011;40050;47.324;18.792;2022-10-16T09:57:51;10.42;;;6.50;;
54143;SDS011;40050;47.324;18.792;2022-10-16T09:59:55;10.53;;;6.60;;
54143;SDS011;40050;47.324;18.792;2022-10-16T10:01:55;9.44;;;6.40;;
54143;SDS011;40050;47.324;18.792;2022-10-16T10:04:07;9.54;;;6.50;;
54143;SDS011;40050;47.324;18.792;2022-10-16T10:06:25;9.64;;;5.80;;
54143;SDS011;40050;47.324;18.792;2022-10-16T10:08:14;10.04;;;6.00;;
54143;SDS011;40050;47.324;18.792;2022-10-16T10:10:23;16.51;;;8.60;;
54143;SDS011;40050;47.324;18.792;2022-10-16T10:12:23;12.22;;;6.80;;
54143;SDS011;40050;47.324;18.792;2022-10-16T10:14:24;11.03;;;6.30;;
54143;SDS011;40050;47.324;18.792;2022-10-16T10:16:24;7.46;;;5.80;;
54143;SDS011;40050;47.324;18.792;2022-10-16T10:18:24;9.05;;;5.50;;
54143;SDS011;40050;47.324;18.792;2022-10-16T10:20:30;10.74;;;5.80;;
54143;SDS011;40050;47.324;18.792;2022-10-16T10:22:42;8.75;;;5.60;;
54143;SDS011;40050;47.324;18.792;2022-10-16T10:24:31;8.84;;;5.90;;
54143;SDS011;40050;47.324;18.792;2022-10-16T10:27:04;10.23;;;6.30;;
54143;SDS011;40050;47.324;18.792;2022-10-16T10:31:29;10.92;;;6.10;;
54143;SDS011;40050;47.324;18.792;2022-10-16T10:40:22;7.75;;;5.60;;
54143;SDS011;40050;47.324;18.792;2022-10-16T10:42:40;8.95;;;5.90;;
54143;SDS011;40050;47.324;18.792;2022-10-16T10:46:39;9.05;;;5.80;;
54143;SDS011;40050;47.324;18.792;2022-10-16T10:49:09;6.86;;;4.90;;
54143;SDS011;40050;47.324;18.792;2022-10-16T10:51:23;8.04;;;5.60;;
54143;SDS011;40050;47.324;18.792;2022-10-16T10:53:58;9.54;;;5.70;;
54143;SDS011;40050;47.324;18.792;2022-10-16T11:02:29;14.69;;;6.30;;
54143;SDS011;40050;47.324;18.792;2022-10-16T11:04:54;11.52;;;5.80;;
54143;SDS011;40050;47.324;18.792;2022-10-16T11:06:59;9.83;;;5.50;;
54143;SDS011;40050;47.324;18.792;2022-10-16T11:09:23;7.95;;;5.30;;
54143;SDS011;40050;47.324;18.792;2022-10-16T11:11:19;9.73;;;5.50;;
54143;SDS011;40050;47.324;18.792;2022-10-16T11:13:32;7.94;;;5.20;;
54143;SDS011;40050;47.324;18.792;2022-10-16T11:15:36;9.23;;;4.90;;
54143;SDS011;40050;47.324;18.792;2022-10-16T11:17:50;12.51;;;5.20;;
54143;SDS011;40050;47.324;18.792;2022-10-16T11:20:02;7.74;;;5.10;;
54143;SDS011;40050;47.324;18.792;2022-10-16T11:24:20;13.40;;;5.50;;
54143;SDS011;40050;47.324;18.792;2022-10-16T11:26:16;7.64;;;5.30;;
54143;SDS011;40050;47.324;18.792;2022-10-16T11:28:20;9.14;;;5.00;;
54143;SDS011;40050;47.324;18.792;2022-10-16T11:30:28;7.05;;;4.80;;
54143;SDS011;40050;47.324;18.792;2022-10-16T11:34:55;6.46;;;4.60;;
54143;SDS011;40050;47.324;18.792;2022-10-16T11:37:15;9.14;;;5.00;;
54143;SDS011;40050;47.324;18.792;2022-10-16T11:39:22;7.65;;;4.60;;
54143;SDS011;40050;47.324;18.792;2022-10-16T11:41:22;6.86;;;4.80;;
54143;SDS011;40050;47.324;18.792;2022-10-16T11:43:46;8.15;;;4.80;;
54143;SDS011;40050;47.324;18.792;2022-10-16T11:45:49;8.94;;;4.40;;
54143;SDS011;40050;47.324;18.792;2022-10-16T11:47:58;5.66;;;4.50;;
54143;SDS011;40050;47.324;18.792;2022-10-16T11:49:59;8.84;;;4.50;;
54143;SDS011;40050;47.324;18.792;2022-10-16T11:52:19;9.04;;;4.70;;
54143;SDS011;40050;47.324;18.792;2022-10-16T11:56:31;7.85;;;4.70;;
54143;SDS011;40050;47.324;18.792;2022-10-16T11:58:37;7.75;;;4.50;;
54143;SDS011;40050;47.324;18.792;2022-10-16T12:00:41;7.65;;;4.70;;
54143;SDS011;40050;47.324;18.792;2022-10-16T12:03:11;8.35;;;4.70;;
54143;SDS011;40050;47.324;18.792;2022-10-16T12:07:43;7.46;;;4.40;;
54143;SDS011;40050;47.324;18.792;2022-10-16T12:09:53;7.06;;;4.40;;
54143;SDS011;40050;47.324;18.792;2022-10-16T12:12:22;6.96;;;4.60;;
54143;SDS011;40050;47.324;18.792;2022-10-16T12:18:20;8.65;;;4.30;;
54143;SDS011;40050;47.324;18.792;2022-10-16T12:20:25;7.46;;;4.30;;
54143;SDS011;40050;47.324;18.792;2022-10-16T12:22:15;5.47;;;4.00;;
54143;SDS011;40050;47.324;18.792;2022-10-16T12:26:26;7.07;;;3.90;;
54143;SDS011;40050;47.324;18.792;2022-10-16T12:28:36;8.16;;;4.40;;
54143;SDS011;40050;47.324;18.792;2022-10-16T12:30:38;6.86;;;4.00;;
54143;SDS011;40050;47.324;18.792;2022-10-16T12:33:03;7.07;;;4.10;;
54143;SDS011;40050;47.324;18.792;2022-10-16T12:35:18;7.47;;;4.10;;
54143;SDS011;40050;47.324;18.792;2022-10-16T12:37:19;6.37;;;4.30;;
54143;SDS011;40050;47.324;18.792;2022-10-16T12:39:23;7.86;;;4.50;;
54143;SDS011;40050;47.324;18.792;2022-10-16T12:41:31;8.16;;;4.10;;
54143;SDS011;40050;47.324;18.792;2022-10-16T12:43:45;6.87;;;4.30;;
54143;SDS011;40050;47.324;18.792;2022-10-16T12:46:02;8.76;;;4.30;;